Time;durP1;ratioP1;P1;durP2;ratioP2;P2;SDS_P1;SDS_P2;PMS_P1;PMS_P2;Temp;Humidity;BMP_temperature;BMP_pressure;BME280_temperature;BME280_humidity;BME280_pressure;Samples;Min_cycle;Max_cycle;Signal;HPM_P1;HPM_P2
2022/08/04 00:00:38;;;;;;;21.85;3.72;;;;;;;24.87;51.05;100849.44;5108930;27;20406;-57
2022/08/04 00:03:18;;;;;;;17.70;3.22;;;;;;;24.93;51.72;100846.81;5110705;28;20136;-57
2022/08/04 00:06:11;;;;;;;21.20;3.17;;;;;;;24.90;51.55;100850.81;5110288;28;20040;-57
2022/08/04 00:08:48;;;;;;;18.77;3.47;;;;;;;24.86;51.46;100841.53;5110665;28;20500;-57
2022/08/04 00:11:20;;;;;;;21.38;2.97;;;;;;;24.85;51.56;100845.31;5110446;28;20055;-57
2022/08/04 00:14:05;;;;;;;24.08;3.53;;;;;;;24.81;52.04;100836.88;5110577;28;20438;-57
2022/08/04 00:16:36;;;;;;;20.00;3.70;;;;;;;24.77;51.52;100830.28;5110876;28;20051;-58
2022/08/04 00:19:10;;;;;;;24.27;3.10;;;;;;;24.76;52.10;100836.78;5110703;28;20123;-57
2022/08/04 00:21:38;;;;;;;18.63;2.95;;;;;;;24.69;51.60;100836.13;5110591;28;20052;-57
2022/08/04 00:24:06;;;;;;;14.27;2.72;;;;;;;24.76;51.91;100838.66;5110597;28;20051;-57
2022/08/04 00:26:33;;;;;;;12.10;2.65;;;;;;;24.73;51.65;100833.75;5110687;28;20052;-57
2022/08/04 00:29:00;;;;;;;15.18;2.95;;;;;;;24.70;51.60;100829.63;5110783;28;20089;-58
2022/08/04 00:31:27;;;;;;;23.13;2.97;;;;;;;24.67;51.68;100833.66;5110399;28;20071;-58
2022/08/04 00:33:54;;;;;;;16.63;2.80;;;;;;;24.65;50.99;100834.94;5108440;28;20085;-58
2022/08/04 00:36:21;;;;;;;18.67;3.03;;;;;;;24.68;51.27;100821.72;5109023;28;20042;-58
2022/08/04 00:38:49;;;;;;;17.15;2.80;;;;;;;24.74;51.81;100819.94;5110495;28;20066;-57
2022/08/04 00:41:25;;;;;;;21.88;2.92;;;;;;;24.66;51.55;100817.63;5110251;28;20100;-58
2022/08/04 00:44:32;;;;;;;21.77;2.88;;;;;;;24.68;51.54;100808.16;5110138;28;20073;-58
2022/08/04 00:47:39;;;;;;;14.32;2.50;;;;;;;24.70;51.58;100806.03;5109597;28;20511;-58
2022/08/04 00:50:13;;;;;;;16.90;2.90;;;;;;;24.68;51.84;100810.06;5109677;28;20437;-57
2022/08/04 00:53:12;;;;;;;16.13;2.50;;;;;;;24.62;51.83;100801.03;5110190;28;20481;-57
2022/08/04 00:56:18;;;;;;;14.88;2.70;;;;;;;24.61;52.01;100812.91;5108812;28;20104;-58
2022/08/04 00:58:58;;;;;;;20.15;2.85;;;;;;;24.61;51.85;100807.50;5109178;28;20382;-58
2022/08/04 01:02:06;;;;;;;17.15;3.00;;;;;;;24.52;51.95;100798.97;5108142;28;20051;-58
2022/08/04 01:04:48;;;;;;;18.98;2.60;;;;;;;24.53;52.05;100797.06;5108127;28;20113;-58
2022/08/04 01:13:11;;;;;;;18.95;2.90;;;;;;;24.43;52.17;100788.72;5111220;27;20844;-57
2022/08/04 01:15:56;;;;;;;19.48;3.13;;;;;;;24.41;51.88;100778.13;5110935;28;20044;-57
2022/08/04 01:18:33;;;;;;;18.30;2.60;;;;;;;24.47;52.18;100789.91;5110718;28;20043;-57
2022/08/04 01:21:40;;;;;;;17.77;2.80;;;;;;;24.48;51.62;100789.63;5111060;28;20093;-57
2022/08/04 01:24:29;;;;;;;17.05;2.58;;;;;;;24.46;51.98;100780.91;5110612;28;20071;-57
2022/08/04 01:27:04;;;;;;;18.98;3.03;;;;;;;24.47;52.18;100779.88;5110441;28;20126;-57
2022/08/04 01:29:49;;;;;;;16.95;2.90;;;;;;;24.45;52.51;100789.28;5110750;28;20048;-57
2022/08/04 01:32:26;;;;;;;23.50;2.80;;;;;;;24.43;52.50;100789.56;5110547;28;20147;-57
2022/08/04 01:35:08;;;;;;;15.70;3.03;;;;;;;24.45;52.41;100786.59;5109981;28;20039;-57
2022/08/04 01:40:28;;;;;;;18.95;2.80;;;;;;;24.45;52.13;100779.28;5173026;27;20177;-58
2022/08/04 01:42:59;;;;;;;21.65;3.45;;;;;;;24.38;52.69;100777.81;5152632;27;20435;-57
2022/08/04 01:45:28;;;;;;;22.90;3.03;;;;;;;24.30;52.84;100779.88;5152108;27;20133;-57
2022/08/04 01:47:55;;;;;;;19.80;3.15;;;;;;;24.26;53.39;100778.69;5152083;27;20043;-57
2022/08/04 01:50:26;;;;;;;22.45;3.00;;;;;;;24.19;53.34;100775.31;5152226;27;20476;-57
2022/08/04 01:52:55;;;;;;;14.68;3.38;;;;;;;24.19;53.49;100777.19;5152123;27;20095;-57
2022/08/04 01:55:22;;;;;;;19.25;3.63;;;;;;;24.14;54.07;100776.06;5152190;27;20099;-57
2022/08/04 01:57:50;;;;;;;14.35;3.00;;;;;;;24.11;54.33;100778.44;5151940;27;20369;-57
2022/08/04 02:00:21;;;;;;;15.93;2.97;;;;;;;24.07;53.70;100783.50;5152204;27;20035;-58
2022/08/04 02:02:49;;;;;;;18.25;3.13;;;;;;;23.87;54.67;100788.53;5145557;27;20057;-57
2022/08/04 02:05:18;;;;;;;14.70;2.80;;;;;;;23.91;55.39;100781.56;5142753;27;20039;-57
2022/08/04 02:08:19;;;;;;;16.80;2.70;;;;;;;23.92;55.34;100780.50;5132324;27;20036;-57
2022/08/04 02:11:05;;;;;;;18.37;3.20;;;;;;;23.80;55.41;100777.03;5132819;27;20789;-57
2022/08/04 02:13:42;;;;;;;18.67;3.33;;;;;;;23.71;55.79;100773.84;5151901;27;20039;-57
2022/08/04 02:16:23;;;;;;;18.42;3.35;;;;;;;23.65;55.99;100772.09;5151331;27;20092;-57
2022/08/04 02:19:03;;;;;;;16.63;3.30;;;;;;;23.58;55.53;100770.34;5151403;27;20062;-57
2022/08/04 02:21:31;;;;;;;17.05;3.42;;;;;;;23.51;55.96;100760.72;5151187;27;20038;-57
2022/08/04 02:24:04;;;;;;;20.75;3.85;;;;;;;23.50;56.29;100773.44;5140367;27;20051;-57
2022/08/04 02:26:34;;;;;;;20.27;3.88;;;;;;;23.51;56.58;100761.53;5130268;28;20050;-58
2022/08/04 02:29:29;;;;;;;20.60;3.47;;;;;;;23.46;56.47;100766.03;5130769;28;20039;-58
2022/08/04 02:32:09;;;;;;;19.52;3.35;;;;;;;23.39;56.67;100760.72;5129681;28;20100;-57
2022/08/04 02:34:46;;;;;;;20.75;3.92;;;;;;;23.35;56.84;100756.88;5130524;28;20054;-58
2022/08/04 02:37:17;;;;;;;19.77;3.55;;;;;;;23.31;57.15;100764.63;5130364;28;20054;-58
2022/08/04 02:39:46;;;;;;;18.40;3.50;;;;;;;23.31;57.80;100761.94;5130069;28;20047;-58
2022/08/04 02:42:14;;;;;;;18.30;3.20;;;;;;;23.24;57.52;100761.25;5130480;28;20039;-58
2022/08/04 02:44:42;;;;;;;26.27;3.78;;;;;;;23.21;58.66;100759.00;5111869;28;20055;-58
2022/08/04 02:47:10;;;;;;;21.15;3.92;;;;;;;23.13;58.87;100756.66;5129754;28;20097;-58
2022/08/04 02:49:41;;;;;;;20.60;3.20;;;;;;;23.10;59.69;100757.13;5129736;28;20036;-57
2022/08/04 02:52:09;;;;;;;17.17;3.42;;;;;;;23.04;58.14;100749.94;5116248;28;20047;-58
2022/08/04 02:54:42;;;;;;;19.00;3.55;;;;;;;23.00;58.63;100753.13;5116578;28;20051;-58
2022/08/04 02:57:11;;;;;;;19.58;3.85;;;;;;;22.98;58.94;100749.00;5116101;28;20043;-58
2022/08/04 03:00:13;;;;;;;15.35;4.20;;;;;;;22.94;58.76;100743.25;5101617;27;20103;-57
2022/08/04 03:09:17;;;;;;;20.95;3.60;;;;;;;22.86;60.70;100740.06;5111205;27;20347;-57
2022/08/04 03:12:15;;;;;;;15.57;3.22;;;;;;;22.77;60.86;100729.59;5110985;28;20149;-57
2022/08/04 03:15:21;;;;;;;17.25;3.25;;;;;;;22.79;60.49;100734.78;5111161;28;20059;-57
2022/08/04 03:18:20;;;;;;;17.75;3.85;;;;;;;22.79;60.22;100727.50;5111028;28;20119;-57
2022/08/04 03:24:04;;;;;;;22.38;3.50;;;;;;;22.75;60.25;100736.31;5091013;28;20344;-57
2022/08/04 03:26:56;;;;;;;15.35;3.65;;;;;;;22.76;60.06;100737.97;5090386;28;20446;-57
2022/08/04 03:29:35;;;;;;;;;;;;;;;22.71;60.24;100740.56;5089830;28;20056;-57
2022/08/04 03:32:34;;;;;;;17.27;3.88;;;;;;;22.71;60.31;100743.25;5089567;28;20015;-57
2022/08/04 03:35:41;;;;;;;15.43;3.90;;;;;;;22.72;60.02;100742.19;5085449;28;20405;-57
2022/08/04 03:38:47;;;;;;;13.23;3.58;;;;;;;22.76;58.89;100735.28;5086258;28;20036;-57
2022/08/04 03:49:51;;;;;;;15.85;4.22;;;;;;;22.71;59.51;100735.16;5110975;27;20355;-57
2022/08/04 03:53:11;;;;;;;14.23;3.85;;;;;;;22.62;60.00;100738.19;5110716;28;20093;-57
2022/08/04 03:55:43;;;;;;;10.52;3.70;;;;;;;22.62;60.32;100740.88;5090057;28;20048;-57
2022/08/04 03:58:50;;;;;;;23.27;5.32;;;;;;;22.60;60.76;100734.06;5090506;28;20042;-57
2022/08/04 04:01:56;;;;;;;16.13;4.65;;;;;;;22.65;61.00;100741.47;5089896;28;20052;-57
2022/08/04 04:05:04;;;;;;;15.93;4.22;;;;;;;22.65;61.38;100734.22;5124824;28;20508;-57
2022/08/04 04:07:55;;;;;;;13.35;4.47;;;;;;;22.56;61.42;100732.91;5130532;27;20489;-57
2022/08/04 04:11:02;;;;;;;15.15;4.75;;;;;;;22.55;61.36;100732.06;5130917;27;20047;-57
2022/08/04 04:14:08;;;;;;;15.35;4.57;;;;;;;22.55;61.81;100733.94;5130625;27;20429;-58
2022/08/04 04:16:59;;;;;;;14.32;4.13;;;;;;;22.53;62.05;100728.78;5130233;27;20126;-57
2022/08/04 04:22:31;;;;;;;15.80;5.00;;;;;;;22.51;62.59;100736.28;5110922;27;20327;-59
2022/08/04 04:28:04;;;;;;;13.25;4.40;;;;;;;22.50;61.99;100734.63;5110880;27;20704;-57
2022/08/04 04:30:44;;;;;;;15.70;4.40;;;;;;;22.53;61.36;100734.19;5110441;28;20084;-57
2022/08/04 04:33:26;;;;;;;19.90;4.63;;;;;;;22.56;61.52;100739.13;5111034;28;20443;-57
2022/08/04 04:36:23;;;;;;;16.27;4.18;;;;;;;22.52;61.79;100745.22;5110598;28;20374;-57
2022/08/04 04:39:07;;;;;;;11.90;4.95;;;;;;;22.52;61.88;100742.50;5110629;28;20546;-57
2022/08/04 04:41:49;;;;;;;18.13;4.47;;;;;;;22.49;61.89;100746.53;5111021;28;20073;-57
2022/08/04 04:44:47;;;;;;;15.70;4.20;;;;;;;22.49;61.77;100749.22;5110963;28;20052;-57
2022/08/04 04:47:54;;;;;;;15.90;4.90;;;;;;;22.51;61.82;100749.81;5110542;28;20040;-57
2022/08/04 04:51:00;;;;;;;16.05;5.05;;;;;;;22.51;61.62;100747.09;5109900;28;20397;-57
2022/08/04 04:56:18;;;;;;;12.70;4.35;;;;;;;22.50;61.49;100750.84;5111110;27;20387;-57
2022/08/04 04:58:44;;;;;;;14.68;4.80;;;;;;;22.52;61.96;100751.47;5109635;28;20050;-57
2022/08/04 05:01:45;;;;;;;14.73;4.50;;;;;;;22.51;62.18;100749.81;5110954;28;20048;-57
2022/08/04 05:04:52;;;;;;;19.83;5.10;;;;;;;22.46;61.82;100748.88;5110261;28;20553;-57
2022/08/04 05:08:01;;;;;;;19.67;4.65;;;;;;;22.49;62.28;100748.41;5109628;28;20040;-57
2022/08/04 05:10:56;;;;;;;11.55;4.68;;;;;;;22.47;62.28;100754.03;5110209;28;20549;-57
2022/08/04 05:13:35;;;;;;;19.55;4.75;;;;;;;22.50;62.18;100755.44;5090136;28;20504;-57
2022/08/04 05:16:33;;;;;;;16.00;4.90;;;;;;;22.51;62.31;100749.00;5090096;28;20040;-57
2022/08/04 05:19:32;;;;;;;15.88;5.43;;;;;;;22.52;62.08;100751.47;5090097;28;20044;-59
2022/08/04 05:22:05;;;;;;;15.48;4.65;;;;;;;22.48;62.20;100752.97;5089034;28;20127;-59
2022/08/04 05:24:39;;;;;;;17.27;5.30;;;;;;;22.54;61.98;100762.03;5105225;28;20068;-58
2022/08/04 05:27:19;;;;;;;17.30;5.18;;;;;;;22.57;61.93;100758.88;5110474;28;20127;-58
2022/08/04 05:29:52;;;;;;;13.60;5.22;;;;;;;22.61;62.31;100765.44;5110588;28;20511;-59
2022/08/04 05:32:25;;;;;;;14.75;5.32;;;;;;;22.64;61.85;100767.69;5110010;28;20135;-58
2022/08/04 05:34:57;;;;;;;14.02;6.03;;;;;;;22.66;61.14;100768.28;5109903;28;20059;-58
2022/08/04 05:37:27;;;;;;;13.00;5.05;;;;;;;22.73;60.96;100770.88;5109965;28;20439;-58
2022/08/04 05:39:57;;;;;;;13.07;5.00;;;;;;;22.80;61.01;100769.69;5109924;28;20475;-59
2022/08/04 05:42:26;;;;;;;15.60;4.70;;;;;;;22.86;61.14;100772.53;5110222;28;20044;-58
2022/08/04 05:44:54;;;;;;;14.75;5.10;;;;;;;22.80;61.17;100768.88;5109523;28;20085;-59
2022/08/04 05:47:23;;;;;;;18.48;4.97;;;;;;;22.85;61.73;100760.91;5110567;28;20067;-58
2022/08/04 05:49:50;;;;;;;31.75;9.90;;;;;;;22.87;61.81;100769.59;5092141;28;20123;-58
2022/08/04 05:52:18;;;;;;;13.75;4.95;;;;;;;22.92;61.99;100766.16;5110234;28;20044;-58
2022/08/04 05:54:47;;;;;;;14.05;4.97;;;;;;;22.94;61.80;100759.47;5109229;28;20044;-59
2022/08/04 05:57:14;;;;;;;15.10;5.60;;;;;;;22.91;61.26;100756.44;5091633;28;20121;-58
2022/08/04 05:59:45;;;;;;;13.27;5.43;;;;;;;22.95;61.56;100758.41;5109662;28;20466;-59
2022/08/04 06:02:15;;;;;;;19.25;5.00;;;;;;;22.96;61.81;100754.66;5108522;28;20048;-60
2022/08/04 06:04:49;;;;;;;13.75;5.50;;;;;;;22.96;61.71;100751.13;5095339;28;20068;-59
2022/08/04 06:07:16;;;;;;;13.82;6.38;;;;;;;23.03;61.32;100751.84;5059700;28;20437;-59
2022/08/04 06:09:45;;;;;;;15.88;5.63;;;;;;;22.99;61.46;100750.66;5075380;28;20150;-59
2022/08/04 06:12:19;;;;;;;12.95;5.35;;;;;;;23.04;62.02;100753.50;5091725;28;20048;-59
2022/08/04 06:14:52;;;;;;;18.83;5.82;;;;;;;23.10;61.52;100746.31;5075908;28;20040;-58
2022/08/04 06:17:25;;;;;;;16.00;5.30;;;;;;;23.11;61.15;100753.38;5091795;28;20131;-59
2022/08/04 06:19:54;;;;;;;14.80;5.60;;;;;;;23.17;61.65;100747.00;5091063;28;20049;-60
2022/08/04 06:22:23;;;;;;;20.40;5.78;;;;;;;23.21;61.62;100748.19;5074513;28;20052;-59
2022/08/04 06:24:53;;;;;;;16.05;6.03;;;;;;;23.26;60.51;100753.69;5075738;28;20040;-59
2022/08/04 06:27:22;;;;;;;12.40;5.40;;;;;;;23.31;60.72;100753.81;5074499;28;20409;-59
2022/08/04 06:29:53;;;;;;;17.20;6.47;;;;;;;23.41;59.90;100761.31;5074822;28;20048;-59
2022/08/04 06:32:26;;;;;;;18.40;6.17;;;;;;;23.41;59.37;100747.78;5074579;28;20068;-59
2022/08/04 06:35:01;;;;;;;26.42;6.68;;;;;;;23.49;59.10;100744.72;5077324;28;20047;-59
2022/08/04 06:37:29;;;;;;;14.40;6.30;;;;;;;23.54;58.80;100750.25;5094394;28;20055;-61
2022/08/04 06:39:57;;;;;;;12.25;5.70;;;;;;;23.60;57.87;100755.75;5095560;28;20044;-59
2022/08/04 06:42:26;;;;;;;15.70;6.40;;;;;;;23.64;58.67;100749.59;5094338;28;20044;-61
2022/08/04 06:44:57;;;;;;;13.60;6.18;;;;;;;23.63;58.14;100745.28;5061129;28;20444;-61
2022/08/04 06:47:25;;;;;;;12.75;5.80;;;;;;;23.69;57.34;100746.19;5096092;28;20461;-59
2022/08/04 06:49:55;;;;;;;15.80;6.07;;;;;;;23.75;56.93;100742.50;5095183;28;20494;-59
2022/08/04 06:52:22;;;;;;;10.45;5.45;;;;;;;23.81;56.83;100744.25;5094070;28;20519;-59
2022/08/04 06:54:51;;;;;;;13.35;5.55;;;;;;;23.86;56.97;100740.84;5094945;28;20052;-59
2022/08/04 06:57:22;;;;;;;13.57;5.72;;;;;;;23.92;56.54;100745.28;5087758;28;20044;-48
2022/08/04 06:59:56;;;;;;;14.18;5.47;;;;;;;24.00;55.44;100742.19;5075361;28;20154;-49
2022/08/04 07:02:27;;;;;;;17.48;6.05;;;;;;;24.15;55.69;100745.16;5091020;28;20497;-48
2022/08/04 07:04:56;;;;;;;15.20;5.50;;;;;;;24.36;54.14;100744.69;5086139;28;20402;-48
2022/08/04 07:07:23;;;;;;;16.58;5.82;;;;;;;24.43;54.20;100754.31;5084566;28;20560;-48
2022/08/04 07:09:52;;;;;;;15.55;5.65;;;;;;;24.53;53.94;100754.50;5087140;28;20056;-46
2022/08/04 07:12:20;;;;;;;19.98;5.97;;;;;;;24.62;53.91;100757.63;5074378;28;20049;-47
2022/08/04 07:14:48;;;;;;;33.22;7.03;;;;;;;24.69;59.03;100749.34;5093882;28;20070;-49
2022/08/04 07:17:17;;;;;;;15.18;5.70;;;;;;;24.64;55.74;100750.06;5074308;28;20037;-46
2022/08/04 07:19:44;;;;;;;15.35;6.05;;;;;;;24.63;55.45;100750.31;5074264;28;20056;-46
2022/08/04 07:22:11;;;;;;;18.85;5.60;;;;;;;24.64;55.82;100747.34;5074952;28;20513;-48
2022/08/04 07:24:40;;;;;;;17.30;6.15;;;;;;;24.73;55.58;100750.47;5075038;28;20089;-48
2022/08/04 07:27:07;;;;;;;13.68;5.80;;;;;;;24.71;54.75;100744.47;5073908;28;20461;-50
2022/08/04 07:29:35;;;;;;;14.45;5.60;;;;;;;24.77;54.85;100751.63;5094028;28;20482;-49
2022/08/04 07:32:04;;;;;;;21.27;7.55;;;;;;;24.82;56.40;100750.88;5094004;28;20196;-46
2022/08/04 07:34:31;;;;;;;27.00;7.68;;;;;;;24.94;55.31;100750.75;5094163;28;20436;-49
2022/08/04 07:36:59;;;;;;;20.92;6.28;;;;;;;24.98;54.36;100752.75;5093109;28;20048;-50
2022/08/04 07:39:30;;;;;;;28.85;7.32;;;;;;;25.03;53.45;100755.53;5093789;28;20085;-49
2022/08/04 07:42:00;;;;;;;13.38;6.28;;;;;;;25.08;55.71;100752.06;5082573;28;20421;-48
2022/08/04 07:44:29;;;;;;;23.27;8.82;;;;;;;25.13;54.08;100751.31;5074413;28;20049;-50
2022/08/04 07:46:56;;;;;;;20.38;6.45;;;;;;;25.15;54.24;100757.31;5076653;28;20535;-47
2022/08/04 07:49:25;;;;;;;22.10;6.60;;;;;;;25.21;54.04;100759.84;5078754;28;20044;-51
2022/08/04 07:51:53;;;;;;;15.15;6.03;;;;;;;25.22;55.15;100758.75;5074040;28;20044;-47
2022/08/04 07:54:21;;;;;;;18.20;5.88;;;;;;;25.28;52.83;100751.53;5074698;28;20443;-47
2022/08/04 07:56:50;;;;;;;12.68;5.13;;;;;;;25.58;52.06;100758.44;5072486;28;20049;-49
2022/08/04 07:59:17;;;;;;;16.25;5.65;;;;;;;25.72;51.84;100764.28;5091915;28;20047;-50
2022/08/04 08:01:45;;;;;;;14.57;5.78;;;;;;;25.79;52.68;100759.47;5093766;28;20040;-47
2022/08/04 08:04:13;;;;;;;17.83;5.82;;;;;;;25.82;51.92;100758.97;5077480;28;20604;-50
2022/08/04 08:06:40;;;;;;;17.70;5.20;;;;;;;25.92;51.25;100764.50;5112563;28;20101;-48
2022/08/04 08:09:13;;;;;;;11.43;5.15;;;;;;;26.02;50.67;100752.94;5081886;28;20048;-48
2022/08/04 08:11:42;;;;;;;18.73;5.80;;;;;;;26.19;50.18;100752.84;5090300;28;20492;-49
2022/08/04 08:14:09;;;;;;;19.02;5.82;;;;;;;26.21;50.64;100748.78;5097258;28;20039;-47
2022/08/04 08:16:36;;;;;;;12.30;5.75;;;;;;;26.32;50.86;100749.69;5089409;28;20033;-47
2022/08/04 08:19:04;;;;;;;21.27;5.90;;;;;;;26.43;49.30;100742.44;5079164;28;20631;-49
2022/08/04 08:21:31;;;;;;;12.15;5.03;;;;;;;26.60;49.10;100740.41;5091917;28;20041;-48
2022/08/04 08:23:58;;;;;;;19.92;5.10;;;;;;;26.80;49.92;100739.75;5074700;28;20551;-49
2022/08/04 08:26:26;;;;;;;27.90;6.40;;;;;;;26.91;48.36;100743.34;5092103;28;20036;-49
2022/08/04 08:28:53;;;;;;;14.45;5.60;;;;;;;27.11;47.59;100731.75;5081893;28;20048;-51
2022/08/04 08:31:20;;;;;;;18.30;6.13;;;;;;;27.37;46.59;100734.59;5087185;28;20044;-48
2022/08/04 08:33:49;;;;;;;20.00;9.05;;;;;;;27.56;46.40;100734.94;5088819;28;20052;-49
2022/08/04 08:36:37;;;;;;;16.92;5.57;;;;;;;27.75;45.55;100740.72;5089338;28;20062;-51
2022/08/04 08:39:22;;;;;;;22.02;8.02;;;;;;;27.85;46.37;100739.91;5084534;28;20051;-50
2022/08/04 08:42:30;;;;;;;18.30;6.20;;;;;;;27.98;44.90;100735.88;5084478;28;20048;-48
2022/08/04 08:45:35;;;;;;;18.08;5.85;;;;;;;28.01;44.18;100733.44;5079577;28;20040;-50
2022/08/04 08:48:42;;;;;;;16.05;5.60;;;;;;;28.19;44.43;100736.72;5072249;28;20494;-50
2022/08/04 08:51:34;;;;;;;15.18;5.05;;;;;;;28.30;43.78;100741.91;5071989;28;20513;-48
2022/08/04 08:54:26;;;;;;;26.15;6.03;;;;;;;28.47;44.36;100746.25;5073365;28;20071;-48
2022/08/04 09:00:10;;;;;;;16.73;5.40;;;;;;;29.12;41.81;100749.16;5107782;27;20919;-48
2022/08/04 09:03:08;;;;;;;21.60;5.45;;;;;;;29.27;42.86;100742.84;5077360;28;20877;-50
2022/08/04 09:06:15;;;;;;;18.85;4.82;;;;;;;29.39;42.26;100740.63;5069709;28;20045;-51
2022/08/04 09:09:14;;;;;;;15.98;4.78;;;;;;;29.56;40.89;100745.75;5074475;28;20052;-61
2022/08/04 09:11:54;;;;;;;18.27;4.50;;;;;;;29.68;40.02;100742.66;5069902;28;20414;-62
2022/08/04 09:14:39;;;;;;;15.20;5.13;;;;;;;29.97;40.37;100744.72;5070231;28;20052;-63
2022/08/04 09:17:16;;;;;;;15.68;5.30;;;;;;;30.12;39.77;100746.50;5070810;28;20058;-62
2022/08/04 09:19:57;;;;;;;19.70;5.97;;;;;;;30.10;39.94;100751.44;5093613;28;20074;-62
2022/08/04 09:22:28;;;;;;;;;;;;;;;30.18;40.00;100748.94;5082150;28;20040;-62
2022/08/04 09:25:11;;;;;;;16.58;4.30;;;;;;;30.23;38.59;100751.63;5073237;28;19939;-65
2022/08/04 09:27:45;;;;;;;17.92;4.22;;;;;;;30.24;38.17;100753.25;5089690;28;20173;-62
2022/08/04 09:30:18;;;;;;;15.68;3.92;;;;;;;30.12;39.24;100755.53;5091837;28;20134;-60
2022/08/04 09:33:02;;;;;;;14.38;3.55;;;;;;;30.02;38.83;100755.63;5088637;28;20047;-62
2022/08/04 09:35:40;;;;;;;15.55;3.97;;;;;;;30.67;37.06;100752.66;5069456;28;20049;-64
2022/08/04 09:38:19;;;;;;;15.45;4.18;;;;;;;30.71;37.06;100750.13;5069495;28;20037;-64
2022/08/04 09:40:53;;;;;;;9.30;4.07;;;;;;;30.70;38.04;100746.56;5103071;28;20048;-64
2022/08/04 09:43:53;;;;;;;20.13;4.25;;;;;;;30.85;38.11;100748.31;5092380;28;20047;-64
2022/08/04 09:46:26;;;;;;;20.77;6.28;;;;;;;31.12;37.11;100745.03;5069218;28;20487;-50
2022/08/04 09:49:00;;;;;;;14.18;4.47;;;;;;;31.09;37.94;100747.53;5043011;28;20037;-59
2022/08/04 09:51:42;;;;;;;10.93;3.55;;;;;;;31.26;36.98;100750.63;5069877;28;20755;-59
2022/08/04 09:54:20;;;;;;;;;;;;;;;31.49;36.11;100759.97;5077532;28;20406;-59
2022/08/04 09:57:13;;;;;;;15.18;3.45;;;;;;;31.44;37.28;100759.19;5083231;28;19931;-59
2022/08/04 10:00:03;;;;;;;16.30;3.78;;;;;;;31.46;36.16;100760.53;5068042;28;20053;-59
2022/08/04 10:02:53;;;;;;;18.02;3.35;;;;;;;31.49;35.57;100754.50;5112536;27;20395;-59
2022/08/04 10:05:25;;;;;;;16.30;3.30;;;;;;;31.59;36.14;100761.75;5092284;28;20046;-59
2022/08/04 10:11:13;;;;;;;15.43;3.45;;;;;;;31.89;34.19;100767.91;5096195;27;20381;-58
2022/08/04 10:16:46;;;;;;;16.35;3.13;;;;;;;31.83;34.55;100769.91;5088378;28;20175;-59
2022/08/04 10:19:25;;;;;;;26.35;3.47;;;;;;;31.92;34.45;100776.34;5087293;28;20052;-59
2022/08/04 10:22:24;;;;;;;17.33;3.55;;;;;;;31.98;34.41;100782.56;5085288;28;20029;-59
2022/08/04 10:25:04;;;;;;;15.27;3.10;;;;;;;32.04;33.48;100780.63;5082581;28;20054;-59
2022/08/04 10:27:50;;;;;;;15.13;3.10;;;;;;;31.90;34.73;100781.31;5081874;28;20444;-59
2022/08/04 10:30:19;;;;;;;20.85;3.28;;;;;;;31.74;34.15;100785.41;5068715;28;20054;-59
2022/08/04 10:33:26;;;;;;;12.70;3.17;;;;;;;31.83;34.45;100786.38;5064139;28;20045;-60
2022/08/04 10:36:00;;;;;;;16.15;3.88;;;;;;;31.75;35.47;100774.13;5088709;28;20444;-60
2022/08/04 10:38:36;;;;;;;12.02;3.22;;;;;;;31.76;34.76;100778.53;5087575;28;20044;-60
2022/08/04 10:41:11;;;;;;;12.90;2.92;;;;;;;31.78;33.20;100786.44;5049503;28;20073;-60
2022/08/04 10:46:21;;;;;;;15.80;3.00;;;;;;;32.02;33.55;100788.28;5118363;27;20181;-60
2022/08/04 10:49:08;;;;;;;7.80;2.70;;;;;;;31.93;32.82;100791.72;5086050;28;20097;-62
2022/08/04 10:51:46;;;;;;;11.45;2.85;;;;;;;31.86;33.40;100795.94;5098350;28;20115;-60
2022/08/04 10:54:22;;;;;;;15.43;3.00;;;;;;;31.94;34.49;100796.09;5119708;28;20554;-60
2022/08/04 10:56:57;;;;;;;20.40;2.95;;;;;;;32.17;34.16;100801.00;5108139;28;20105;-60
2022/08/04 10:59:38;;;;;;;10.82;3.30;;;;;;;32.30;33.81;100797.50;5109461;28;20402;-61
2022/08/04 11:02:19;;;;;;;15.53;2.97;;;;;;;32.11;34.66;100792.84;5108732;28;20108;-62
2022/08/04 11:04:47;;;;;;;;;;;;;;;32.09;33.07;100795.06;5096622;28;20505;-49
2022/08/04 11:07:16;;;;;;;16.85;4.97;;;;;;;32.28;32.25;100799.72;5089874;28;20293;-50
2022/08/04 11:09:44;;;;;;;16.15;6.90;;;;;;;32.20;32.62;100798.47;5090023;28;20490;-60
2022/08/04 11:12:18;;;;;;;12.05;3.00;;;;;;;32.19;33.25;100790.53;5090509;28;20056;-64
2022/08/04 11:15:06;;;;;;;8.77;3.13;;;;;;;32.21;33.02;100791.88;5090478;28;20046;-60
2022/08/04 11:17:41;;;;;;;14.45;3.20;;;;;;;32.26;33.85;100789.03;5096974;28;20477;-59
2022/08/04 11:20:29;;;;;;;12.85;3.17;;;;;;;32.21;34.28;100799.28;5093000;28;20048;-63
2022/08/04 11:23:09;;;;;;;14.93;3.35;;;;;;;32.14;34.32;100805.97;5058540;28;20062;-60
2022/08/04 11:25:55;;;;;;;19.00;3.70;;;;;;;31.89;35.26;100795.31;5103841;28;20032;-60
2022/08/04 11:31:10;;;;;;;16.13;3.60;;;;;;;31.76;35.59;100803.19;5092266;27;20364;-60
2022/08/04 11:34:13;;;;;;;16.77;3.35;;;;;;;31.76;35.03;100802.38;5089788;28;20052;-60
2022/08/04 11:36:59;;;;;;;18.10;4.13;;;;;;;31.55;35.72;100812.81;5069743;28;20510;-61
2022/08/04 11:39:33;;;;;;;20.02;3.97;;;;;;;31.39;36.19;100809.41;5088932;28;20037;-60
2022/08/04 11:42:18;;;;;;;19.35;3.90;;;;;;;31.21;36.71;100829.34;5084019;28;20051;-60
2022/08/04 11:44:50;;;;;;;20.35;4.60;;;;;;;30.88;37.29;100824.44;5089051;28;20127;-61
2022/08/04 11:47:29;;;;;;;14.98;3.70;;;;;;;30.79;37.19;100826.97;5087023;28;20044;-60
2022/08/04 11:50:04;;;;;;;11.60;3.13;;;;;;;30.71;36.99;100818.56;5085221;28;20040;-60
2022/08/04 11:52:32;;;;;;;14.93;3.10;;;;;;;30.53;38.32;100818.16;5093988;28;20048;-60
2022/08/04 11:55:04;;;;;;;23.70;7.45;;;;;;;30.30;39.73;100827.88;5089808;28;20036;-60
2022/08/04 11:57:31;;;;;;;19.98;5.35;;;;;;;30.21;40.77;100826.84;5094904;28;20048;-58
2022/08/04 11:59:59;;;;;;;28.30;7.75;;;;;;;30.04;41.77;100829.97;5082966;28;20066;-58
2022/08/04 12:02:56;;;;;;;40.70;12.82;;;;;;;30.03;42.54;100833.81;5086133;28;20048;-58
2022/08/04 12:05:32;;;;;;;24.92;8.32;;;;;;;30.16;40.46;100826.88;5086481;28;20059;-58
2022/08/04 12:08:34;;;;;;;17.50;3.53;;;;;;;30.21;40.41;100827.66;5098749;28;20051;-59
2022/08/04 12:11:24;;;;;;;19.10;3.42;;;;;;;30.50;39.40;100829.69;5088790;28;20050;-58
2022/08/04 12:14:13;;;;;;;13.43;4.28;;;;;;;30.74;38.21;100827.00;5091667;28;20047;-59
2022/08/04 12:16:51;;;;;;;18.85;3.63;;;;;;;30.90;38.18;100827.69;5089657;28;20040;-58
2022/08/04 12:19:27;;;;;;;14.68;3.95;;;;;;;30.85;37.69;100826.94;5089878;28;20043;-59
2022/08/04 12:21:59;;;;;;;18.75;4.80;;;;;;;30.63;38.05;100833.69;5088991;28;20119;-59
2022/08/04 12:24:50;;;;;;;19.30;5.95;;;;;;;30.50;38.29;100835.16;5088369;28;20055;-59
2022/08/04 12:27:30;;;;;;;16.52;5.28;;;;;;;30.50;38.36;100839.81;5087062;28;20076;-59
2022/08/04 12:29:57;;;;;;;23.15;10.85;;;;;;;30.48;39.23;100839.28;5100117;28;20079;-58
2022/08/04 12:32:58;;;;;;;26.92;12.35;;;;;;;30.52;39.44;100838.41;5089388;28;20494;-59
2022/08/04 12:35:41;;;;;;;29.10;11.00;;;;;;;30.88;39.17;100831.84;5083493;28;20036;-59
2022/08/04 12:38:13;;;;;;;21.63;10.45;;;;;;;31.17;39.51;100843.59;5072280;28;20058;-59
2022/08/04 12:40:45;;;;;;;16.10;4.45;;;;;;;31.47;39.80;100830.69;5093204;28;20553;-60
2022/08/04 12:43:41;;;;;;;16.83;5.88;;;;;;;31.54;39.98;100842.16;5076506;28;20044;-61
2022/08/04 12:46:10;;;;;;;15.57;5.00;;;;;;;31.64;38.64;100840.38;5069181;28;20089;-61
2022/08/04 12:48:38;;;;;;;19.92;4.25;;;;;;;31.47;38.54;100838.91;5063324;28;20044;-61
2022/08/04 12:51:09;;;;;;;17.58;4.55;;;;;;;31.15;39.18;100839.53;5074097;28;20036;-61
2022/08/04 12:53:40;;;;;;;20.05;5.03;;;;;;;30.94;39.88;100836.97;5074711;28;20478;-64
2022/08/04 12:56:10;;;;;;;14.25;4.22;;;;;;;30.90;39.66;100835.91;5073238;28;20043;-60
2022/08/04 12:58:40;;;;;;;14.98;5.00;;;;;;;30.47;39.99;100833.00;5074288;28;20040;-60
2022/08/04 13:01:11;;;;;;;18.25;4.47;;;;;;;30.58;40.25;100834.56;5073002;28;20443;-61